createdAt,value
2018-09-08T00:00:45.227Z,98028.66
2018-09-08T00:05:38.339Z,98038.62
2018-09-08T00:10:31.390Z,98036.09
2018-09-08T00:15:29.754Z,98040.67
2018-09-08T00:20:28.581Z,98030.11
2018-09-08T00:25:27.047Z,98036.75
2018-09-08T00:30:20.219Z,98041.79
2018-09-08T00:35:13.306Z,98046.81
2018-09-08T00:40:06.376Z,98043.13
2018-09-08T00:44:59.436Z,98044.29
2018-09-08T00:49:52.510Z,98030.27
2018-09-08T00:54:52.290Z,98029.78
2018-09-08T00:59:45.350Z,98029.78
2018-09-08T01:04:38.732Z,98031.13
2018-09-08T01:09:31.712Z,98026.75
2018-09-08T01:14:24.722Z,98017.09
2018-09-08T01:19:17.710Z,98016.91
2018-09-08T01:24:10.643Z,98014.39
2018-09-08T01:29:03.718Z,98015.27
2018-09-08T01:33:56.770Z,98020.34
2018-09-08T01:38:49.806Z,98018.52
2018-09-08T01:43:42.936Z,98024.41
2018-09-08T01:48:36.191Z,98029.44
2018-09-08T01:53:29.234Z,98029.40
2018-09-08T01:58:22.283Z,98033.91
2018-09-08T02:03:15.536Z,98035.73
2018-09-08T02:08:08.628Z,98046.61
2018-09-08T02:13:01.749Z,98046.98
2018-09-08T02:17:54.811Z,98049.39
2018-09-08T02:22:47.854Z,98054.92
2018-09-08T02:27:41.159Z,98047.47
2018-09-08T02:32:34.310Z,98061.14
2018-09-08T02:37:27.297Z,98059.39
2018-09-08T02:42:20.436Z,98058.39
2018-09-08T02:47:13.592Z,98057.98
2018-09-08T02:52:05.324Z,98066.74
2018-09-08T02:56:56.916Z,98070.98
2018-09-08T03:01:48.633Z,98070.61
2018-09-08T03:06:40.327Z,98081.59
2018-09-08T03:11:31.975Z,98069.08
2018-09-08T03:16:23.699Z,98077.48
2018-09-08T03:21:15.319Z,98074.47
2018-09-08T03:26:06.996Z,98082.73
2018-09-08T03:30:58.547Z,98085.44
2018-09-08T03:35:50.575Z,98099.05
2018-09-08T03:40:42.280Z,98107.31
2018-09-08T03:45:33.945Z,98107.98
2018-09-08T03:50:25.700Z,98118.33
2018-09-08T03:55:17.263Z,98119.83
2018-09-08T04:00:08.850Z,98122.80
2018-09-08T04:05:01.894Z,98125.53
2018-09-08T04:09:55.040Z,98118.37
2018-09-08T04:14:48.195Z,98120.09
2018-09-08T04:19:41.155Z,98126.02
2018-09-08T04:24:34.193Z,98121.06
2018-09-08T04:29:27.379Z,98131.10
2018-09-08T04:34:20.283Z,98139.34
2018-09-08T04:39:13.386Z,98130.97
2018-09-08T04:44:06.596Z,98136.98
2018-09-08T04:49:00.711Z,98140.30
2018-09-08T04:53:53.786Z,98133.41
2018-09-08T04:58:46.806Z,98135.13
2018-09-08T05:03:39.726Z,98135.59
2018-09-08T05:08:32.785Z,98137.12
2018-09-08T05:13:25.895Z,98135.16
2018-09-08T05:18:19.039Z,98138.35
2018-09-08T05:23:12.725Z,98131.53
2018-09-08T05:28:05.674Z,98123.43
2018-09-08T05:32:59.155Z,98126.37
2018-09-08T05:37:52.903Z,98129.10
2018-09-08T05:42:46.110Z,98121.71
2018-09-08T05:47:39.658Z,98124.73
2018-09-08T05:52:32.982Z,98114.00
2018-09-08T05:57:28.366Z,98117.05
2018-09-08T06:02:23.088Z,98119.18
2018-09-08T06:07:20.304Z,98127.94
2018-09-08T06:12:20.609Z,98132.77
2018-09-08T06:17:15.304Z,98140.77
2018-09-08T06:22:11.522Z,98137.14
2018-09-08T06:27:04.912Z,98141.96
2018-09-08T06:31:58.860Z,98142.59
2018-09-08T06:36:54.810Z,98145.67
2018-09-08T06:41:49.009Z,98144.48
2018-09-08T06:46:42.192Z,98154.36
2018-09-08T06:51:36.222Z,98153.10
2018-09-08T06:56:30.008Z,98153.31
2018-09-08T07:01:23.228Z,98171.57
2018-09-08T07:06:16.373Z,98165.55
2018-09-08T07:11:09.965Z,98160.69
2018-09-08T07:16:05.358Z,98173.94
2018-09-08T07:20:59.614Z,98178.67
2018-09-08T07:25:54.348Z,98194.22
2018-09-08T07:30:47.462Z,98173.08
2018-09-08T07:35:40.788Z,98182.44
2018-09-08T07:40:33.767Z,98195.67
2018-09-08T07:45:26.865Z,98200.22
2018-09-08T07:50:20.043Z,98202.91
2018-09-08T07:55:13.273Z,98203.66
2018-09-08T08:00:06.581Z,98196.84
2018-09-08T08:04:59.602Z,98208.58
2018-09-08T08:09:52.609Z,98195.98
2018-09-08T08:14:45.680Z,98193.30
2018-09-08T08:19:39.022Z,98188.74
2018-09-08T08:24:32.037Z,98186.12
2018-09-08T08:29:26.126Z,98188.47
2018-09-08T08:34:19.396Z,98189.69
2018-09-08T08:39:12.493Z,98184.84
2018-09-08T08:44:05.500Z,98186.03
2018-09-08T08:48:58.741Z,98191.92
2018-09-08T08:54:02.700Z,98177.77
2018-09-08T08:58:55.748Z,98176.41
2018-09-08T09:03:48.712Z,98177.88
2018-09-08T09:08:44.898Z,98180.34
2018-09-08T09:13:37.600Z,98173.48
2018-09-08T09:18:41.968Z,98170.17
2018-09-08T09:24:43.740Z,98166.31
2018-09-08T09:29:36.379Z,98157.91
2018-09-08T09:34:29.467Z,98167.25
2018-09-08T09:39:27.760Z,98164.13
2018-09-08T09:44:20.954Z,98169.45
2018-09-08T09:49:14.248Z,98166.95
2018-09-08T09:54:07.313Z,98180.45
2018-09-08T09:59:00.963Z,98172.02
2018-09-08T10:03:53.925Z,98165.64
2018-09-08T10:08:46.931Z,98163.30
2018-09-08T10:13:39.940Z,98164.09
2018-09-08T10:18:33.021Z,98160.57
2018-09-08T10:23:26.231Z,98172.14
2018-09-08T10:28:26.750Z,98163.34
2018-09-08T10:33:21.134Z,98153.41
2018-09-08T10:38:14.400Z,98162.02
2018-09-08T10:43:07.434Z,98152.80
2018-09-08T10:48:00.405Z,98152.86
2018-09-08T10:52:53.587Z,98147.27
2018-09-08T10:57:46.607Z,98151.77
2018-09-08T11:02:40.013Z,98143.24
2018-09-08T11:07:32.831Z,98138.18
2018-09-08T11:12:25.906Z,98140.65
2018-09-08T11:17:18.940Z,98149.75
2018-09-08T11:22:12.164Z,98143.44
2018-09-08T11:27:05.432Z,98142.91
2018-09-08T11:31:58.647Z,98153.04
2018-09-08T11:36:51.703Z,98149.44
2018-09-08T11:41:45.318Z,98147.25
2018-09-08T11:46:38.307Z,98137.83
2018-09-08T11:51:31.744Z,98135.06
2018-09-08T11:56:24.824Z,98134.77
2018-09-08T12:01:17.863Z,98149.44
2018-09-08T12:06:11.023Z,98133.56
2018-09-08T12:11:04.143Z,98132.70
2018-09-08T12:15:57.146Z,98126.98
2018-09-08T12:20:50.381Z,98125.66
2018-09-08T12:25:43.435Z,98116.13
2018-09-08T12:30:36.563Z,98117.95
2018-09-08T12:35:30.617Z,98115.88
2018-09-08T12:40:23.634Z,98117.75
2018-09-08T12:45:16.771Z,98123.06
2018-09-08T12:50:09.923Z,98130.02
2018-09-08T12:55:02.936Z,98125.45
2018-09-08T12:59:56.017Z,98123.82
2018-09-08T13:04:49.046Z,98124.45
2018-09-08T13:09:42.090Z,98118.32
2018-09-08T13:14:35.322Z,98109.27
2018-09-08T13:19:29.569Z,98106.25
2018-09-08T13:24:23.025Z,98108.19
2018-09-08T13:29:16.436Z,98104.07
2018-09-08T13:34:09.497Z,98105.90
2018-09-08T13:39:02.703Z,98110.18
2018-09-08T13:43:55.835Z,98119.59
2018-09-08T13:48:49.030Z,98120.42
2018-09-08T13:53:42.973Z,98139.08
2018-09-08T13:58:36.225Z,98136.97
2018-09-08T14:03:29.468Z,98144.78
2018-09-08T14:08:22.726Z,98154.67
2018-09-08T14:13:15.783Z,98139.14
2018-09-08T14:18:10.608Z,98145.99
2018-09-08T14:23:03.880Z,98142.04
2018-09-08T14:27:57.134Z,98129.88
2018-09-08T14:32:50.915Z,98156.50
2018-09-08T14:37:44.328Z,98148.17
2018-09-08T14:42:37.912Z,98154.59
2018-09-08T14:52:46.479Z,98166.89
2018-09-08T14:57:39.539Z,98180.54
2018-09-08T15:02:32.580Z,98188.81
2018-09-08T15:07:25.659Z,98200.59
2018-09-08T15:12:18.758Z,98195.84
2018-09-08T15:17:12.173Z,98201.28
2018-09-08T15:22:05.254Z,98199.94
2018-09-08T15:26:58.585Z,98206.34
2018-09-08T15:31:51.835Z,98205.27
2018-09-08T15:36:45.057Z,98203.65
2018-09-08T15:41:38.339Z,98206.36
2018-09-08T15:46:31.677Z,98188.52
2018-09-08T15:51:24.991Z,98193.09
2018-09-08T15:56:18.134Z,98203.95
2018-09-08T16:01:11.708Z,98187.97
2018-09-08T16:06:05.243Z,98200.94
2018-09-08T16:10:58.606Z,98201.36
2018-09-08T16:15:52.091Z,98192.56
2018-09-08T16:20:45.462Z,98191.62
2018-09-08T16:25:38.844Z,98195.42
2018-09-08T16:30:32.207Z,98204.66
2018-09-08T16:35:26.081Z,98215.78
2018-09-08T16:40:19.591Z,98211.70
2018-09-08T16:45:12.882Z,98219.16
2018-09-08T16:50:06.243Z,98237.17
2018-09-08T16:54:59.881Z,98257.07
2018-09-08T16:59:53.211Z,98265.15
2018-09-08T17:04:46.384Z,98282.98
2018-09-08T17:09:39.899Z,98285.94
2018-09-08T17:14:33.471Z,98294.55
2018-09-08T17:19:26.427Z,98291.20
2018-09-08T17:24:19.485Z,98305.25
2018-09-08T17:29:12.703Z,98307.14
2018-09-08T17:34:05.842Z,98310.08
2018-09-08T17:38:59.017Z,98325.45
2018-09-08T17:43:52.106Z,98334.71
2018-09-08T17:48:45.242Z,98334.63
2018-09-08T17:53:38.373Z,98339.30
2018-09-08T17:58:31.493Z,98345.51
2018-09-08T18:03:24.583Z,98349.52
2018-09-08T18:08:19.268Z,98359.77
2018-09-08T18:13:12.397Z,98371.53
2018-09-08T18:18:05.427Z,98385.42
2018-09-08T18:22:58.579Z,98402.14
2018-09-08T18:27:51.627Z,98395.96
2018-09-08T18:32:44.960Z,98401.71
2018-09-08T18:37:37.935Z,98405.89
2018-09-08T18:42:31.022Z,98391.22
2018-09-08T18:47:24.151Z,98383.88
2018-09-08T18:52:17.199Z,98381.62
2018-09-08T18:57:10.177Z,98377.36
2018-09-08T19:02:03.273Z,98370.12
2018-09-08T19:06:56.430Z,98386.86
2018-09-08T19:11:49.500Z,98382.99
2018-09-08T19:16:42.508Z,98388.55
2018-09-08T19:21:35.506Z,98378.44
2018-09-08T19:26:28.519Z,98384.67
2018-09-08T19:31:21.417Z,98386.74
2018-09-08T19:36:14.449Z,98390.34
2018-09-08T19:41:07.531Z,98387.69
2018-09-08T19:46:04.958Z,98386.69
2018-09-08T19:50:57.899Z,98392.23
2018-09-08T19:55:50.889Z,98390.41
2018-09-08T20:00:43.855Z,98394.38
2018-09-08T20:05:37.332Z,98389.12
2018-09-08T20:10:30.322Z,98388.95
2018-09-08T20:15:23.607Z,98391.21
2018-09-08T20:20:17.143Z,98390.41
2018-09-08T20:25:10.382Z,98395.08
2018-09-08T20:30:03.427Z,98395.19
2018-09-08T20:34:56.455Z,98391.41
2018-09-08T20:39:53.680Z,98399.94
2018-09-08T20:44:46.719Z,98401.31
2018-09-08T20:49:39.737Z,98400.78
2018-09-08T20:54:32.755Z,98392.58
2018-09-08T20:59:25.782Z,98390.52
2018-09-08T21:04:18.884Z,98392.02
2018-09-08T21:09:11.830Z,98386.17
2018-09-08T21:14:04.750Z,98384.37
2018-09-08T21:18:57.827Z,98374.47
2018-09-08T21:23:50.874Z,98380.09
2018-09-08T21:28:43.980Z,98380.41
2018-09-08T21:33:37.198Z,98379.61
2018-09-08T21:38:30.242Z,98383.15
2018-09-08T21:43:23.225Z,98391.13
2018-09-08T21:48:16.310Z,98385.19
2018-09-08T21:53:09.511Z,98392.33
2018-09-08T21:58:02.434Z,98392.61
2018-09-08T22:02:56.155Z,98393.17
2018-09-08T22:07:49.267Z,98386.53
2018-09-08T22:12:42.302Z,98391.00
2018-09-08T22:17:35.368Z,98397.05
2018-09-08T22:22:28.449Z,98392.87
2018-09-08T22:27:21.341Z,98396.39
2018-09-08T22:32:14.381Z,98404.44
2018-09-08T22:37:07.581Z,98403.06
2018-09-08T22:42:00.703Z,98400.16
2018-09-08T22:46:53.659Z,98398.56
2018-09-08T22:51:46.652Z,98395.34
2018-09-08T22:56:39.768Z,98397.62
2018-09-08T23:01:32.736Z,98396.98
2018-09-08T23:06:26.191Z,98393.95
2018-09-08T23:11:19.202Z,98387.73
2018-09-08T23:16:12.134Z,98388.92
2018-09-08T23:21:05.346Z,98388.09
2018-09-08T23:25:58.338Z,98378.88
2018-09-08T23:30:51.478Z,98376.44
2018-09-08T23:35:44.394Z,98370.02
2018-09-08T23:40:37.419Z,98370.77
2018-09-08T23:45:30.394Z,98374.39
2018-09-08T23:50:23.489Z,98368.66
2018-09-08T23:55:16.532Z,98373.98
